sensor_id;sensor_type;location;lat;lon;timestamp;temperature;humidity
37974;DHT22;23796;51.458;7.000;2022-11-25T00:01:05;9.30;99.90
37974;DHT22;23796;51.458;7.000;2022-11-25T00:03:31;9.30;99.90
37974;DHT22;23796;51.458;7.000;2022-11-25T00:06:07;9.30;99.90
37974;DHT22;23796;51.458;7.000;2022-11-25T00:08:33;9.20;99.90
37974;DHT22;23796;51.458;7.000;2022-11-25T00:11:02;9.20;99.90
37974;DHT22;23796;51.458;7.000;2022-11-25T00:13:28;9.20;99.90
37974;DHT22;23796;51.458;7.000;2022-11-25T00:15:53;9.20;99.90
37974;DHT22;23796;51.458;7.000;2022-11-25T00:18:19;9.20;99.90
37974;DHT22;23796;51.458;7.000;2022-11-25T00:20:44;9.20;99.90
37974;DHT22;23796;51.458;7.000;2022-11-25T00:23:12;9.20;99.90
37974;DHT22;23796;51.458;7.000;2022-11-25T00:25:38;9.20;99.90
37974;DHT22;23796;51.458;7.000;2022-11-25T00:28:03;9.20;99.90
37974;DHT22;23796;51.458;7.000;2022-11-25T00:30:31;9.20;99.90
37974;DHT22;23796;51.458;7.000;2022-11-25T00:32:57;9.20;99.90
37974;DHT22;23796;51.458;7.000;2022-11-25T00:35:22;9.10;99.90
37974;DHT22;23796;51.458;7.000;2022-11-25T00:37:48;9.20;99.90
37974;DHT22;23796;51.458;7.000;2022-11-25T00:40:16;9.20;99.90
37974;DHT22;23796;51.458;7.000;2022-11-25T00:42:41;9.20;99.90
37974;DHT22;23796;51.458;7.000;2022-11-25T00:45:26;9.20;99.90
37974;DHT22;23796;51.458;7.000;2022-11-25T00:47:52;9.20;99.90
37974;DHT22;23796;51.458;7.000;2022-11-25T00:50:20;9.20;99.90
37974;DHT22;23796;51.458;7.000;2022-11-25T00:52:46;9.20;99.90
37974;DHT22;23796;51.458;7.000;2022-11-25T00:55:11;9.20;99.90
37974;DHT22;23796;51.458;7.000;2022-11-25T00:57:37;9.30;99.90
37974;DHT22;23796;51.458;7.000;2022-11-25T01:00:03;9.30;99.90
37974;DHT22;23796;51.458;7.000;2022-11-25T01:02:32;9.20;99.90
37974;DHT22;23796;51.458;7.000;2022-11-25T01:05:00;9.20;99.90
37974;DHT22;23796;51.458;7.000;2022-11-25T01:07:30;9.20;99.90
37974;DHT22;23796;51.458;7.000;2022-11-25T01:09:58;9.20;99.90
37974;DHT22;23796;51.458;7.000;2022-11-25T01:12:24;9.10;99.90
37974;DHT22;23796;51.458;7.000;2022-11-25T01:14:49;9.10;99.90
37974;DHT22;23796;51.458;7.000;2022-11-25T01:17:15;9.10;99.90
37974;DHT22;23796;51.458;7.000;2022-11-25T01:19:43;9.00;99.90
37974;DHT22;23796;51.458;7.000;2022-11-25T01:22:08;9.00;99.90
37974;DHT22;23796;51.458;7.000;2022-11-25T01:24:34;9.10;99.90
37974;DHT22;23796;51.458;7.000;2022-11-25T01:27:00;9.10;99.90
37974;DHT22;23796;51.458;7.000;2022-11-25T01:29:25;9.10;99.90
37974;DHT22;23796;51.458;7.000;2022-11-25T01:31:54;9.10;99.90
37974;DHT22;23796;51.458;7.000;2022-11-25T01:34:22;9.10;99.90
37974;DHT22;23796;51.458;7.000;2022-11-25T01:36:49;9.10;99.90
37974;DHT22;23796;51.458;7.000;2022-11-25T01:39:23;9.10;99.90
37974;DHT22;23796;51.458;7.000;2022-11-25T01:41:49;9.10;99.90
37974;DHT22;23796;51.458;7.000;2022-11-25T01:44:18;9.20;99.90
37974;DHT22;23796;51.458;7.000;2022-11-25T01:49:35;9.20;99.90
37974;DHT22;23796;51.458;7.000;2022-11-25T01:52:26;9.30;99.90
37974;DHT22;23796;51.458;7.000;2022-11-25T01:54:56;9.30;99.90
37974;DHT22;23796;51.458;7.000;2022-11-25T01:57:28;9.40;99.90
37974;DHT22;23796;51.458;7.000;2022-11-25T02:00:00;9.40;99.90
37974;DHT22;23796;51.458;7.000;2022-11-25T02:02:27;9.50;99.90
37974;DHT22;23796;51.458;7.000;2022-11-25T02:04:53;9.50;99.90
37974;DHT22;23796;51.458;7.000;2022-11-25T02:07:30;9.50;99.90
37974;DHT22;23796;51.458;7.000;2022-11-25T02:09:57;9.60;99.90
37974;DHT22;23796;51.458;7.000;2022-11-25T02:12:27;9.60;99.90
37974;DHT22;23796;51.458;7.000;2022-11-25T02:14:56;9.70;99.90
37974;DHT22;23796;51.458;7.000;2022-11-25T02:17:23;9.70;99.90
37974;DHT22;23796;51.458;7.000;2022-11-25T02:20:07;9.70;99.90
37974;DHT22;23796;51.458;7.000;2022-11-25T02:25:51;9.70;99.90
37974;DHT22;23796;51.458;7.000;2022-11-25T02:28:22;9.70;99.90
37974;DHT22;23796;51.458;7.000;2022-11-25T02:30:48;9.70;99.90
37974;DHT22;23796;51.458;7.000;2022-11-25T02:33:15;9.80;99.90
37974;DHT22;23796;51.458;7.000;2022-11-25T02:35:57;9.90;99.90
37974;DHT22;23796;51.458;7.000;2022-11-25T02:38:42;10.00;99.90
37974;DHT22;23796;51.458;7.000;2022-11-25T02:41:31;10.00;99.90
37974;DHT22;23796;51.458;7.000;2022-11-25T02:44:00;10.10;99.90
37974;DHT22;23796;51.458;7.000;2022-11-25T02:46:28;10.10;99.90
37974;DHT22;23796;51.458;7.000;2022-11-25T02:48:56;10.20;99.90
37974;DHT22;23796;51.458;7.000;2022-11-25T02:51:24;10.20;99.90
37974;DHT22;23796;51.458;7.000;2022-11-25T02:53:50;10.30;99.90
37974;DHT22;23796;51.458;7.000;2022-11-25T02:56:20;10.30;99.90
37974;DHT22;23796;51.458;7.000;2022-11-25T02:58:48;10.30;99.90
37974;DHT22;23796;51.458;7.000;2022-11-25T03:01:14;10.40;99.90
37974;DHT22;23796;51.458;7.000;2022-11-25T03:03:39;10.40;99.90
37974;DHT22;23796;51.458;7.000;2022-11-25T03:06:05;10.40;99.90
37974;DHT22;23796;51.458;7.000;2022-11-25T03:08:31;10.50;99.90
37974;DHT22;23796;51.458;7.000;2022-11-25T03:10:58;10.50;99.90
37974;DHT22;23796;51.458;7.000;2022-11-25T03:13:24;10.50;99.90
37974;DHT22;23796;51.458;7.000;2022-11-25T03:15:50;10.50;99.90
37974;DHT22;23796;51.458;7.000;2022-11-25T03:18:15;10.50;99.90
37974;DHT22;23796;51.458;7.000;2022-11-25T03:20:41;10.50;99.90
37974;DHT22;23796;51.458;7.000;2022-11-25T03:23:07;10.50;99.90
37974;DHT22;23796;51.458;7.000;2022-11-25T03:25:34;10.50;99.90
37974;DHT22;23796;51.458;7.000;2022-11-25T03:28:00;10.40;99.90
37974;DHT22;23796;51.458;7.000;2022-11-25T03:30:27;10.50;99.90
37974;DHT22;23796;51.458;7.000;2022-11-25T03:32:53;10.50;99.90
37974;DHT22;23796;51.458;7.000;2022-11-25T03:35:22;10.40;99.90
37974;DHT22;23796;51.458;7.000;2022-11-25T03:37:50;10.40;99.90
37974;DHT22;23796;51.458;7.000;2022-11-25T03:40:15;10.50;99.90
37974;DHT22;23796;51.458;7.000;2022-11-25T03:42:42;10.50;99.90
37974;DHT22;23796;51.458;7.000;2022-11-25T03:45:12;10.50;99.90
37974;DHT22;23796;51.458;7.000;2022-11-25T03:47:41;10.50;99.90
37974;DHT22;23796;51.458;7.000;2022-11-25T03:50:10;10.50;99.90
37974;DHT22;23796;51.458;7.000;2022-11-25T03:52:39;10.50;99.90
37974;DHT22;23796;51.458;7.000;2022-11-25T03:55:05;10.50;99.90
37974;DHT22;23796;51.458;7.000;2022-11-25T03:57:36;10.50;99.90
37974;DHT22;23796;51.458;7.000;2022-11-25T04:00:09;10.50;99.90
37974;DHT22;23796;51.458;7.000;2022-11-25T04:02:35;10.50;99.90
37974;DHT22;23796;51.458;7.000;2022-11-25T04:05:03;10.50;99.90
37974;DHT22;23796;51.458;7.000;2022-11-25T04:07:29;10.50;99.90
37974;DHT22;23796;51.458;7.000;2022-11-25T04:09:58;10.50;99.90
37974;DHT22;23796;51.458;7.000;2022-11-25T04:12:23;10.50;99.90
37974;DHT22;23796;51.458;7.000;2022-11-25T04:15:07;10.60;99.90
37974;DHT22;23796;51.458;7.000;2022-11-25T04:17:33;10.60;99.90
37974;DHT22;23796;51.458;7.000;2022-11-25T04:19:59;10.50;99.90
37974;DHT22;23796;51.458;7.000;2022-11-25T04:22:24;10.60;99.90
37974;DHT22;23796;51.458;7.000;2022-11-25T04:24:52;10.60;99.90
37974;DHT22;23796;51.458;7.000;2022-11-25T04:27:20;10.50;99.90
37974;DHT22;23796;51.458;7.000;2022-11-25T04:29:50;10.60;99.90
37974;DHT22;23796;51.458;7.000;2022-11-25T04:32:18;10.60;99.90
37974;DHT22;23796;51.458;7.000;2022-11-25T04:34:44;10.50;99.90
37974;DHT22;23796;51.458;7.000;2022-11-25T04:37:09;10.50;99.90
37974;DHT22;23796;51.458;7.000;2022-11-25T04:39:35;10.50;99.90
37974;DHT22;23796;51.458;7.000;2022-11-25T04:42:01;10.40;99.90
37974;DHT22;23796;51.458;7.000;2022-11-25T04:44:46;10.40;99.90
37974;DHT22;23796;51.458;7.000;2022-11-25T04:47:11;10.40;99.90
37974;DHT22;23796;51.458;7.000;2022-11-25T04:49:37;10.40;99.90
37974;DHT22;23796;51.458;7.000;2022-11-25T04:52:05;10.40;99.90
37974;DHT22;23796;51.458;7.000;2022-11-25T04:54:33;10.40;99.90
37974;DHT22;23796;51.458;7.000;2022-11-25T04:56:58;10.40;99.90
37974;DHT22;23796;51.458;7.000;2022-11-25T04:59:24;10.30;99.90
37974;DHT22;23796;51.458;7.000;2022-11-25T05:02:20;10.30;99.90
37974;DHT22;23796;51.458;7.000;2022-11-25T05:04:48;10.30;99.90
37974;DHT22;23796;51.458;7.000;2022-11-25T05:07:18;10.30;99.90
37974;DHT22;23796;51.458;7.000;2022-11-25T05:09:44;10.30;99.90
37974;DHT22;23796;51.458;7.000;2022-11-25T05:12:12;10.30;99.90
37974;DHT22;23796;51.458;7.000;2022-11-25T05:14:38;10.20;99.90
37974;DHT22;23796;51.458;7.000;2022-11-25T05:17:04;10.20;99.90
37974;DHT22;23796;51.458;7.000;2022-11-25T05:19:31;10.30;99.90
37974;DHT22;23796;51.458;7.000;2022-11-25T05:22:01;10.30;99.90
37974;DHT22;23796;51.458;7.000;2022-11-25T05:24:28;10.20;99.90
37974;DHT22;23796;51.458;7.000;2022-11-25T05:26:56;10.20;99.90
37974;DHT22;23796;51.458;7.000;2022-11-25T05:29:24;10.20;99.90
37974;DHT22;23796;51.458;7.000;2022-11-25T05:31:50;10.20;99.90
37974;DHT22;23796;51.458;7.000;2022-11-25T05:34:18;10.10;99.90
37974;DHT22;23796;51.458;7.000;2022-11-25T05:36:43;10.10;99.90
37974;DHT22;23796;51.458;7.000;2022-11-25T05:39:09;10.20;99.90
37974;DHT22;23796;51.458;7.000;2022-11-25T05:41:37;10.10;99.90
37974;DHT22;23796;51.458;7.000;2022-11-25T05:44:03;10.10;99.90
37974;DHT22;23796;51.458;7.000;2022-11-25T05:46:30;10.10;99.90
37974;DHT22;23796;51.458;7.000;2022-11-25T05:48:56;10.10;99.90
37974;DHT22;23796;51.458;7.000;2022-11-25T05:51:25;10.10;99.90
37974;DHT22;23796;51.458;7.000;2022-11-25T05:53:54;10.00;99.90
37974;DHT22;23796;51.458;7.000;2022-11-25T05:56:20;10.00;99.90
37974;DHT22;23796;51.458;7.000;2022-11-25T05:58:46;10.00;99.90
37974;DHT22;23796;51.458;7.000;2022-11-25T06:01:13;9.90;99.90
37974;DHT22;23796;51.458;7.000;2022-11-25T06:03:40;10.00;99.90
37974;DHT22;23796;51.458;7.000;2022-11-25T06:06:09;10.00;99.90
37974;DHT22;23796;51.458;7.000;2022-11-25T06:08:37;9.90;99.90
37974;DHT22;23796;51.458;7.000;2022-11-25T06:11:11;9.90;99.90
37974;DHT22;23796;51.458;7.000;2022-11-25T06:13:38;9.90;99.90
37974;DHT22;23796;51.458;7.000;2022-11-25T06:16:22;10.00;99.90
37974;DHT22;23796;51.458;7.000;2022-11-25T06:18:48;10.00;99.90
37974;DHT22;23796;51.458;7.000;2022-11-25T06:21:14;10.00;99.90
37974;DHT22;23796;51.458;7.000;2022-11-25T06:23:39;10.00;99.90
37974;DHT22;23796;51.458;7.000;2022-11-25T06:26:19;10.00;99.90
37974;DHT22;23796;51.458;7.000;2022-11-25T06:28:45;10.00;99.90
37974;DHT22;23796;51.458;7.000;2022-11-25T06:31:14;10.00;99.90
37974;DHT22;23796;51.458;7.000;2022-11-25T06:33:41;10.00;99.90
37974;DHT22;23796;51.458;7.000;2022-11-25T06:36:10;10.00;99.90
37974;DHT22;23796;51.458;7.000;2022-11-25T06:38:43;10.00;99.90
37974;DHT22;23796;51.458;7.000;2022-11-25T06:41:12;9.90;99.90
37974;DHT22;23796;51.458;7.000;2022-11-25T06:43:38;9.90;99.90
37974;DHT22;23796;51.458;7.000;2022-11-25T06:46:05;9.90;99.90
37974;DHT22;23796;51.458;7.000;2022-11-25T06:48:32;9.90;99.90
37974;DHT22;23796;51.458;7.000;2022-11-25T06:51:03;9.90;99.90
37974;DHT22;23796;51.458;7.000;2022-11-25T06:53:32;9.90;99.90
37974;DHT22;23796;51.458;7.000;2022-11-25T06:56:03;9.90;99.90
37974;DHT22;23796;51.458;7.000;2022-11-25T06:58:29;9.80;99.90
37974;DHT22;23796;51.458;7.000;2022-11-25T07:01:20;9.70;99.90
37974;DHT22;23796;51.458;7.000;2022-11-25T07:03:50;9.60;99.90
37974;DHT22;23796;51.458;7.000;2022-11-25T07:06:16;9.70;99.90
37974;DHT22;23796;51.458;7.000;2022-11-25T07:08:43;9.70;99.90
37974;DHT22;23796;51.458;7.000;2022-11-25T07:13:39;9.90;99.90
37974;DHT22;23796;51.458;7.000;2022-11-25T07:16:06;9.90;99.90
37974;DHT22;23796;51.458;7.000;2022-11-25T07:18:34;9.90;99.90
37974;DHT22;23796;51.458;7.000;2022-11-25T07:21:11;9.90;99.90
37974;DHT22;23796;51.458;7.000;2022-11-25T07:23:38;9.90;99.90
37974;DHT22;23796;51.458;7.000;2022-11-25T07:26:08;9.90;99.90
37974;DHT22;23796;51.458;7.000;2022-11-25T07:28:35;9.90;99.90
37974;DHT22;23796;51.458;7.000;2022-11-25T07:33:30;9.90;99.90
37974;DHT22;23796;51.458;7.000;2022-11-25T07:35:59;9.90;99.90
37974;DHT22;23796;51.458;7.000;2022-11-25T07:38:26;9.90;99.90
37974;DHT22;23796;51.458;7.000;2022-11-25T07:40:54;9.90;99.90
37974;DHT22;23796;51.458;7.000;2022-11-25T07:43:22;9.80;99.90
37974;DHT22;23796;51.458;7.000;2022-11-25T07:45:48;9.80;99.90
37974;DHT22;23796;51.458;7.000;2022-11-25T07:48:14;9.70;99.90
37974;DHT22;23796;51.458;7.000;2022-11-25T07:50:41;9.60;99.90
37974;DHT22;23796;51.458;7.000;2022-11-25T07:53:07;9.50;99.90
37974;DHT22;23796;51.458;7.000;2022-11-25T07:55:32;9.50;99.90
37974;DHT22;23796;51.458;7.000;2022-11-25T07:57:58;9.50;99.90
37974;DHT22;23796;51.458;7.000;2022-11-25T08:00:26;9.50;99.90
37974;DHT22;23796;51.458;7.000;2022-11-25T08:02:51;9.60;99.90
37974;DHT22;23796;51.458;7.000;2022-11-25T08:05:17;9.50;99.90
37974;DHT22;23796;51.458;7.000;2022-11-25T08:07:43;9.50;99.90
37974;DHT22;23796;51.458;7.000;2022-11-25T08:10:09;9.60;99.90
37974;DHT22;23796;51.458;7.000;2022-11-25T08:12:34;9.60;99.90
37974;DHT22;23796;51.458;7.000;2022-11-25T08:15:00;9.60;99.90
37974;DHT22;23796;51.458;7.000;2022-11-25T08:17:28;9.50;99.90
37974;DHT22;23796;51.458;7.000;2022-11-25T08:19:53;9.40;99.90
37974;DHT22;23796;51.458;7.000;2022-11-25T08:22:24;9.40;99.90
37974;DHT22;23796;51.458;7.000;2022-11-25T08:24:49;9.40;99.90
37974;DHT22;23796;51.458;7.000;2022-11-25T08:27:17;9.40;99.90
37974;DHT22;23796;51.458;7.000;2022-11-25T08:29:43;9.50;99.90
37974;DHT22;23796;51.458;7.000;2022-11-25T08:32:08;9.50;99.90
37974;DHT22;23796;51.458;7.000;2022-11-25T08:34:36;9.50;99.90
37974;DHT22;23796;51.458;7.000;2022-11-25T08:37:02;9.50;99.90
37974;DHT22;23796;51.458;7.000;2022-11-25T08:39:28;9.40;99.90
37974;DHT22;23796;51.458;7.000;2022-11-25T08:41:54;9.40;99.90
37974;DHT22;23796;51.458;7.000;2022-11-25T08:44:20;9.30;99.90
37974;DHT22;23796;51.458;7.000;2022-11-25T08:46:45;9.30;99.90
37974;DHT22;23796;51.458;7.000;2022-11-25T08:49:13;9.30;99.90
37974;DHT22;23796;51.458;7.000;2022-11-25T08:51:43;9.40;99.90
37974;DHT22;23796;51.458;7.000;2022-11-25T08:54:09;9.40;99.90
37974;DHT22;23796;51.458;7.000;2022-11-25T08:56:34;9.40;99.90
37974;DHT22;23796;51.458;7.000;2022-11-25T08:59:01;9.40;99.90
37974;DHT22;23796;51.458;7.000;2022-11-25T09:01:27;9.40;99.90
37974;DHT22;23796;51.458;7.000;2022-11-25T09:03:54;9.40;99.90
37974;DHT22;23796;51.458;7.000;2022-11-25T09:06:24;9.40;99.90
37974;DHT22;23796;51.458;7.000;2022-11-25T09:08:49;9.40;99.90
37974;DHT22;23796;51.458;7.000;2022-11-25T09:11:17;9.50;99.90
37974;DHT22;23796;51.458;7.000;2022-11-25T09:13:43;9.50;99.90
37974;DHT22;23796;51.458;7.000;2022-11-25T09:16:11;9.50;99.90
37974;DHT22;23796;51.458;7.000;2022-11-25T09:18:39;9.50;99.90
37974;DHT22;23796;51.458;7.000;2022-11-25T09:21:09;9.50;99.90
37974;DHT22;23796;51.458;7.000;2022-11-25T09:23:38;9.60;99.90
37974;DHT22;23796;51.458;7.000;2022-11-25T09:26:05;9.50;99.90
37974;DHT22;23796;51.458;7.000;2022-11-25T09:28:34;9.60;99.90
37974;DHT22;23796;51.458;7.000;2022-11-25T09:31:08;9.60;99.90
37974;DHT22;23796;51.458;7.000;2022-11-25T09:33:34;9.60;99.90
37974;DHT22;23796;51.458;7.000;2022-11-25T09:36:00;9.60;99.90
37974;DHT22;23796;51.458;7.000;2022-11-25T09:38:26;9.60;99.90
37974;DHT22;23796;51.458;7.000;2022-11-25T09:41:01;9.70;99.90
37974;DHT22;23796;51.458;7.000;2022-11-25T09:43:54;9.70;99.90
37974;DHT22;23796;51.458;7.000;2022-11-25T09:55:04;10.20;99.90
37974;DHT22;23796;51.458;7.000;2022-11-25T10:00:15;10.30;99.90
37974;DHT22;23796;51.458;7.000;2022-11-25T10:08:24;10.30;99.90
37974;DHT22;23796;51.458;7.000;2022-11-25T10:16:32;10.60;99.90
37974;DHT22;23796;51.458;7.000;2022-11-25T10:21:51;10.90;99.90
37974;DHT22;23796;51.458;7.000;2022-11-25T10:24:17;11.00;99.90
37974;DHT22;23796;51.458;7.000;2022-11-25T10:26:51;11.10;99.90
37974;DHT22;23796;51.458;7.000;2022-11-25T10:29:23;11.10;99.90
37974;DHT22;23796;51.458;7.000;2022-11-25T10:31:53;11.10;99.90
37974;DHT22;23796;51.458;7.000;2022-11-25T10:34:38;11.10;99.90
37974;DHT22;23796;51.458;7.000;2022-11-25T10:37:11;11.00;99.90
37974;DHT22;23796;51.458;7.000;2022-11-25T10:39:38;11.00;99.90
37974;DHT22;23796;51.458;7.000;2022-11-25T10:42:13;10.90;99.90
37974;DHT22;23796;51.458;7.000;2022-11-25T10:44:40;10.90;99.90
37974;DHT22;23796;51.458;7.000;2022-11-25T10:50:18;10.70;99.90
37974;DHT22;23796;51.458;7.000;2022-11-25T10:53:26;10.70;99.90
37974;DHT22;23796;51.458;7.000;2022-11-25T10:58:32;10.60;99.90
37974;DHT22;23796;51.458;7.000;2022-11-25T11:03:27;10.70;99.90
37974;DHT22;23796;51.458;7.000;2022-11-25T11:05:53;10.70;99.90
37974;DHT22;23796;51.458;7.000;2022-11-25T11:08:24;10.70;99.90
37974;DHT22;23796;51.458;7.000;2022-11-25T11:11:17;10.70;99.90
37974;DHT22;23796;51.458;7.000;2022-11-25T11:13:43;10.70;99.90
37974;DHT22;23796;51.458;7.000;2022-11-25T11:18:56;11.30;99.90
37974;DHT22;23796;51.458;7.000;2022-11-25T11:21:31;12.10;99.90
37974;DHT22;23796;51.458;7.000;2022-11-25T11:24:01;12.20;99.90
37974;DHT22;23796;51.458;7.000;2022-11-25T11:26:38;12.00;99.90
37974;DHT22;23796;51.458;7.000;2022-11-25T11:29:14;11.90;99.90
37974;DHT22;23796;51.458;7.000;2022-11-25T11:31:49;11.90;99.90
37974;DHT22;23796;51.458;7.000;2022-11-25T11:42:29;11.70;99.90
37974;DHT22;23796;51.458;7.000;2022-11-25T11:45:49;11.70;99.90
37974;DHT22;23796;51.458;7.000;2022-11-25T11:51:11;11.70;99.90
37974;DHT22;23796;51.458;7.000;2022-11-25T11:56:46;11.90;99.90
37974;DHT22;23796;51.458;7.000;2022-11-25T12:04:34;12.20;99.90
37974;DHT22;23796;51.458;7.000;2022-11-25T12:07:06;12.30;99.90
37974;DHT22;23796;51.458;7.000;2022-11-25T12:09:54;12.40;99.90
37974;DHT22;23796;51.458;7.000;2022-11-25T12:12:33;12.40;99.90
37974;DHT22;23796;51.458;7.000;2022-11-25T12:15:27;12.40;99.90
37974;DHT22;23796;51.458;7.000;2022-11-25T12:18:03;12.40;99.90
37974;DHT22;23796;51.458;7.000;2022-11-25T12:23:18;12.50;99.90
37974;DHT22;23796;51.458;7.000;2022-11-25T12:25:50;12.60;99.90
37974;DHT22;23796;51.458;7.000;2022-11-25T12:28:29;12.70;99.90
37974;DHT22;23796;51.458;7.000;2022-11-25T12:31:02;12.70;99.90
37974;DHT22;23796;51.458;7.000;2022-11-25T12:39:03;12.80;99.90
37974;DHT22;23796;51.458;7.000;2022-11-25T12:41:44;12.70;99.90
37974;DHT22;23796;51.458;7.000;2022-11-25T12:47:25;12.70;99.90
37974;DHT22;23796;51.458;7.000;2022-11-25T12:49:52;13.00;99.90
37974;DHT22;23796;51.458;7.000;2022-11-25T12:52:25;13.20;99.90
37974;DHT22;23796;51.458;7.000;2022-11-25T13:00:46;13.00;99.90
37974;DHT22;23796;51.458;7.000;2022-11-25T13:03:24;13.00;99.90
37974;DHT22;23796;51.458;7.000;2022-11-25T13:14:26;12.80;99.90
37974;DHT22;23796;51.458;7.000;2022-11-25T13:16:53;12.50;99.90
37974;DHT22;23796;51.458;7.000;2022-11-25T13:19:19;12.20;99.90
37974;DHT22;23796;51.458;7.000;2022-11-25T13:22:05;12.20;99.90
37974;DHT22;23796;51.458;7.000;2022-11-25T13:24:56;12.40;99.90
37974;DHT22;23796;51.458;7.000;2022-11-25T13:30:33;12.60;99.90
37974;DHT22;23796;51.458;7.000;2022-11-25T13:32:51;12.50;99.90
37974;DHT22;23796;51.458;7.000;2022-11-25T13:37:52;12.40;99.90
37974;DHT22;23796;51.458;7.000;2022-11-25T13:42:51;12.50;99.90
37974;DHT22;23796;51.458;7.000;2022-11-25T13:45:43;12.50;99.90
37974;DHT22;23796;51.458;7.000;2022-11-25T13:50:39;12.40;99.90
37974;DHT22;23796;51.458;7.000;2022-11-25T13:53:17;12.50;99.90
37974;DHT22;23796;51.458;7.000;2022-11-25T13:55:44;12.60;99.90
37974;DHT22;23796;51.458;7.000;2022-11-25T14:00:44;12.60;99.90
37974;DHT22;23796;51.458;7.000;2022-11-25T14:11:33;12.60;99.90
37974;DHT22;23796;51.458;7.000;2022-11-25T14:25:56;12.50;99.90
37974;DHT22;23796;51.458;7.000;2022-11-25T14:28:34;12.40;99.90
37974;DHT22;23796;51.458;7.000;2022-11-25T14:31:07;12.40;99.90
37974;DHT22;23796;51.458;7.000;2022-11-25T14:33:42;12.40;99.90
37974;DHT22;23796;51.458;7.000;2022-11-25T14:36:16;12.40;99.90
37974;DHT22;23796;51.458;7.000;2022-11-25T14:38:58;12.40;99.90
37974;DHT22;23796;51.458;7.000;2022-11-25T14:44:05;12.30;99.90
37974;DHT22;23796;51.458;7.000;2022-11-25T14:46:31;12.30;99.90
37974;DHT22;23796;51.458;7.000;2022-11-25T14:49:01;12.30;99.90
37974;DHT22;23796;51.458;7.000;2022-11-25T14:51:36;12.30;99.90
37974;DHT22;23796;51.458;7.000;2022-11-25T14:54:06;12.40;99.90
37974;DHT22;23796;51.458;7.000;2022-11-25T14:56:35;12.30;99.90
37974;DHT22;23796;51.458;7.000;2022-11-25T14:59:01;12.30;99.90
37974;DHT22;23796;51.458;7.000;2022-11-25T15:01:31;12.20;99.90
37974;DHT22;23796;51.458;7.000;2022-11-25T15:04:05;12.20;99.90
37974;DHT22;23796;51.458;7.000;2022-11-25T15:06:39;12.20;99.90
37974;DHT22;23796;51.458;7.000;2022-11-25T15:09:25;12.30;99.90
37974;DHT22;23796;51.458;7.000;2022-11-25T15:12:03;12.30;99.90
37974;DHT22;23796;51.458;7.000;2022-11-25T15:14:32;12.10;99.90
37974;DHT22;23796;51.458;7.000;2022-11-25T15:17:01;11.90;99.90
37974;DHT22;23796;51.458;7.000;2022-11-25T15:19:34;11.70;99.90
37974;DHT22;23796;51.458;7.000;2022-11-25T15:22:02;11.60;99.90
37974;DHT22;23796;51.458;7.000;2022-11-25T15:24:43;11.50;99.90
37974;DHT22;23796;51.458;7.000;2022-11-25T15:27:16;11.60;99.90
37974;DHT22;23796;51.458;7.000;2022-11-25T15:29:44;11.60;99.90
37974;DHT22;23796;51.458;7.000;2022-11-25T15:32:23;11.60;99.90
37974;DHT22;23796;51.458;7.000;2022-11-25T15:34:51;11.60;99.90
37974;DHT22;23796;51.458;7.000;2022-11-25T15:37:17;11.70;99.90
37974;DHT22;23796;51.458;7.000;2022-11-25T15:39:43;11.70;99.90
37974;DHT22;23796;51.458;7.000;2022-11-25T15:44:52;11.70;99.90
37974;DHT22;23796;51.458;7.000;2022-11-25T15:47:24;11.60;99.90
37974;DHT22;23796;51.458;7.000;2022-11-25T15:52:34;11.40;99.90
37974;DHT22;23796;51.458;7.000;2022-11-25T15:55:25;11.30;99.90
37974;DHT22;23796;51.458;7.000;2022-11-25T15:57:54;11.30;99.90
37974;DHT22;23796;51.458;7.000;2022-11-25T16:00:22;11.30;99.90
37974;DHT22;23796;51.458;7.000;2022-11-25T16:02:51;11.40;99.90
37974;DHT22;23796;51.458;7.000;2022-11-25T16:05:24;11.50;99.90
37974;DHT22;23796;51.458;7.000;2022-11-25T16:18:25;11.60;99.90
37974;DHT22;23796;51.458;7.000;2022-11-25T16:20:56;11.60;99.90
37974;DHT22;23796;51.458;7.000;2022-11-25T16:23:23;11.60;99.90
37974;DHT22;23796;51.458;7.000;2022-11-25T16:28:40;11.60;99.90
37974;DHT22;23796;51.458;7.000;2022-11-25T16:31:16;11.60;99.90
37974;DHT22;23796;51.458;7.000;2022-11-25T16:33:42;11.60;99.90
37974;DHT22;23796;51.458;7.000;2022-11-25T16:36:08;11.70;99.90
37974;DHT22;23796;51.458;7.000;2022-11-25T16:38:33;11.70;99.90
37974;DHT22;23796;51.458;7.000;2022-11-25T16:41:18;11.70;99.90
37974;DHT22;23796;51.458;7.000;2022-11-25T16:43:49;11.70;99.90
37974;DHT22;23796;51.458;7.000;2022-11-25T16:46:16;11.70;99.90
37974;DHT22;23796;51.458;7.000;2022-11-25T16:48:45;11.70;99.90
37974;DHT22;23796;51.458;7.000;2022-11-25T16:51:16;11.60;99.90
37974;DHT22;23796;51.458;7.000;2022-11-25T16:53:43;11.60;99.90
37974;DHT22;23796;51.458;7.000;2022-11-25T16:56:33;11.50;99.90
37974;DHT22;23796;51.458;7.000;2022-11-25T16:59:18;11.50;99.90
37974;DHT22;23796;51.458;7.000;2022-11-25T17:01:45;11.40;99.90
37974;DHT22;23796;51.458;7.000;2022-11-25T17:04:12;11.50;99.90
37974;DHT22;23796;51.458;7.000;2022-11-25T17:06:38;11.40;99.90
37974;DHT22;23796;51.458;7.000;2022-11-25T17:09:06;11.30;99.90
37974;DHT22;23796;51.458;7.000;2022-11-25T17:11:35;11.20;99.90
37974;DHT22;23796;51.458;7.000;2022-11-25T17:14:32;11.10;99.90
37974;DHT22;23796;51.458;7.000;2022-11-25T17:16:59;10.90;99.90
37974;DHT22;23796;51.458;7.000;2022-11-25T17:19:27;10.90;99.90
37974;DHT22;23796;51.458;7.000;2022-11-25T17:21:55;10.90;99.90
37974;DHT22;23796;51.458;7.000;2022-11-25T17:24:23;11.00;99.90
37974;DHT22;23796;51.458;7.000;2022-11-25T17:27:02;11.10;99.90
37974;DHT22;23796;51.458;7.000;2022-11-25T17:29:38;11.20;99.90
37974;DHT22;23796;51.458;7.000;2022-11-25T17:32:05;11.30;99.90
37974;DHT22;23796;51.458;7.000;2022-11-25T17:34:34;11.30;99.90
37974;DHT22;23796;51.458;7.000;2022-11-25T17:37:05;11.40;99.90
37974;DHT22;23796;51.458;7.000;2022-11-25T17:39:31;11.50;99.90
37974;DHT22;23796;51.458;7.000;2022-11-25T17:41:59;11.50;99.90
37974;DHT22;23796;51.458;7.000;2022-11-25T17:44:27;11.60;99.90
37974;DHT22;23796;51.458;7.000;2022-11-25T17:46:57;11.60;99.90
37974;DHT22;23796;51.458;7.000;2022-11-25T17:49:25;11.40;99.90
37974;DHT22;23796;51.458;7.000;2022-11-25T17:51:51;11.30;99.90
37974;DHT22;23796;51.458;7.000;2022-11-25T17:54:16;11.30;99.90
37974;DHT22;23796;51.458;7.000;2022-11-25T17:56:44;11.30;99.90
37974;DHT22;23796;51.458;7.000;2022-11-25T17:59:17;11.30;99.90
37974;DHT22;23796;51.458;7.000;2022-11-25T18:01:43;11.30;99.90
37974;DHT22;23796;51.458;7.000;2022-11-25T18:04:22;11.30;99.90
37974;DHT22;23796;51.458;7.000;2022-11-25T18:06:49;11.40;99.90
37974;DHT22;23796;51.458;7.000;2022-11-25T18:09:15;11.30;99.90
37974;DHT22;23796;51.458;7.000;2022-11-25T18:11:44;11.30;99.90
37974;DHT22;23796;51.458;7.000;2022-11-25T18:14:21;11.10;99.90
37974;DHT22;23796;51.458;7.000;2022-11-25T18:16:47;11.00;99.90
37974;DHT22;23796;51.458;7.000;2022-11-25T18:19:15;10.90;99.90
37974;DHT22;23796;51.458;7.000;2022-11-25T18:21:41;10.80;99.90